Time;durP1;ratioP1;P1;durP2;ratioP2;P2;SDS_P1;SDS_P2;PMS_P1;PMS_P2;Temp;Humidity;BMP_temperature;BMP_pressure;BME280_temperature;BME280_humidity;BME280_pressure;Samples;Min_cycle;Max_cycle;Signal;HPM_P1;HPM_P2
2023/05/14 00:00:11;;;;;;;2.92;0.80;;;12.60;99.90;;;;;;5011743;28;20129;-67
2023/05/14 00:02:37;;;;;;;0.20;0.20;;;12.50;99.90;;;;;;5015220;28;20425;-67
2023/05/14 00:05:02;;;;;;;1.40;1.30;;;12.60;99.90;;;;;;5001887;28;20049;-67
2023/05/14 00:07:29;;;;;;;0.45;0.10;;;12.60;99.90;;;;;;5013127;28;20057;-67
2023/05/14 00:09:58;;;;;;;0.20;0.20;;;12.60;99.90;;;;;;5004881;28;20065;-67
2023/05/14 00:12:25;;;;;;;0.68;0.68;;;12.50;99.90;;;;;;5002232;28;20049;-67
2023/05/14 00:14:51;;;;;;;0.22;0.22;;;12.50;99.90;;;;;;5014958;28;20149;-67
2023/05/14 00:17:17;;;;;;;0.00;0.00;;;12.50;99.90;;;;;;5000443;28;20095;-67
2023/05/14 00:19:42;;;;;;;0.20;0.20;;;12.50;99.90;;;;;;5007911;28;20449;-67
2023/05/14 00:22:08;;;;;;;0.35;0.35;;;12.50;99.90;;;;;;5010551;28;20083;-67
2023/05/14 00:24:34;;;;;;;0.32;0.32;;;12.40;99.90;;;;;;5011279;28;20038;-67
2023/05/14 00:27:00;;;;;;;0.00;0.00;;;12.40;99.90;;;;;;4999072;28;20409;-67
2023/05/14 00:29:25;;;;;;;0.93;0.55;;;12.40;99.90;;;;;;5011275;28;20041;-67
2023/05/14 00:31:51;;;;;;;0.20;0.20;;;12.40;99.90;;;;;;5011164;28;20374;-67
2023/05/14 00:34:17;;;;;;;2.80;1.35;;;12.50;99.90;;;;;;5003196;28;20143;-67
2023/05/14 00:36:42;;;;;;;1.80;0.50;;;12.50;99.90;;;;;;5008306;28;20034;-66
2023/05/14 00:39:08;;;;;;;0.10;0.10;;;12.50;99.90;;;;;;5010640;28;20036;-67
2023/05/14 00:41:34;;;;;;;0.10;0.10;;;12.40;99.90;;;;;;5011632;28;20046;-67
2023/05/14 00:43:59;;;;;;;0.22;0.15;;;12.40;99.90;;;;;;5000362;28;20035;-66
2023/05/14 00:46:25;;;;;;;0.20;0.20;;;12.40;99.90;;;;;;4993255;28;20497;-67
2023/05/14 00:48:51;;;;;;;0.75;0.60;;;12.40;99.90;;;;;;5011551;28;20045;-67
2023/05/14 00:51:17;;;;;;;0.00;0.00;;;12.40;99.90;;;;;;5006253;28;20088;-67
2023/05/14 00:53:44;;;;;;;0.52;0.52;;;12.40;99.90;;;;;;5006437;28;20092;-67
2023/05/14 00:56:10;;;;;;;0.10;0.10;;;12.30;99.90;;;;;;5001239;28;20045;-67
2023/05/14 00:58:36;;;;;;;10.30;1.88;;;12.40;99.90;;;;;;5003093;28;20042;-66
2023/05/14 01:01:02;;;;;;;0.28;0.28;;;12.30;99.90;;;;;;5003831;28;20096;-67
2023/05/14 01:03:29;;;;;;;0.25;0.25;;;12.40;99.90;;;;;;5005785;28;20720;-67
2023/05/14 01:06:12;;;;;;;0.10;0.10;;;12.40;99.90;;;;;;5007673;28;20104;-67
2023/05/14 01:09:09;;;;;;;0.20;0.20;;;12.30;99.90;;;;;;5009418;28;20121;-67
2023/05/14 01:11:58;;;;;;;1.63;1.40;;;12.40;99.90;;;;;;5002218;28;20406;-67
2023/05/14 01:14:51;;;;;;;0.43;0.43;;;12.40;99.90;;;;;;4997085;28;20143;-67
2023/05/14 01:17:19;;;;;;;0.40;0.40;;;12.30;99.90;;;;;;4992531;28;20474;-67
2023/05/14 01:19:46;;;;;;;0.45;0.45;;;12.30;99.90;;;;;;5013081;28;20088;-67
2023/05/14 01:22:12;;;;;;;0.22;0.22;;;12.30;99.90;;;;;;4977841;28;20107;-67
2023/05/14 01:24:39;;;;;;;3.40;1.90;;;12.30;99.90;;;;;;5009268;28;20050;-67
2023/05/14 01:27:29;;;;;;;0.88;0.82;;;12.30;99.90;;;;;;5011070;28;20144;-67
2023/05/14 01:30:10;;;;;;;0.28;0.25;;;12.30;99.90;;;;;;4979047;28;20050;-67
2023/05/14 01:32:37;;;;;;;3.70;0.90;;;12.20;99.90;;;;;;5003239;28;20058;-67
2023/05/14 01:35:04;;;;;;;0.10;0.10;;;12.20;99.90;;;;;;4999456;28;20092;-67
2023/05/14 01:37:31;;;;;;;0.00;0.00;;;12.30;99.90;;;;;;5002773;28;20513;-67
2023/05/14 01:39:57;;;;;;;0.15;0.15;;;12.30;99.90;;;;;;5002796;28;20548;-67
2023/05/14 01:42:25;;;;;;;0.10;0.10;;;12.30;99.90;;;;;;5002928;28;20088;-67
2023/05/14 01:44:50;;;;;;;0.40;0.32;;;12.30;99.90;;;;;;4999055;28;20033;-67
2023/05/14 01:47:16;;;;;;;0.10;0.10;;;12.30;99.90;;;;;;5004157;28;20533;-66
2023/05/14 01:49:42;;;;;;;0.00;0.00;;;12.30;99.90;;;;;;5016727;28;20042;-67
2023/05/14 01:52:07;;;;;;;0.10;0.10;;;12.30;99.90;;;;;;5015140;28;20495;-67
2023/05/14 01:54:33;;;;;;;0.22;0.15;;;12.30;99.90;;;;;;4990439;28;20099;-67
2023/05/14 01:56:59;;;;;;;0.10;0.10;;;12.30;99.90;;;;;;5008985;28;20076;-67
2023/05/14 01:59:24;;;;;;;0.10;0.10;;;12.20;99.90;;;;;;4998442;28;20041;-67
2023/05/14 02:01:50;;;;;;;0.10;0.10;;;12.20;99.90;;;;;;5006840;28;20541;-67
2023/05/14 02:04:15;;;;;;;0.20;0.20;;;12.20;99.90;;;;;;5000497;28;20394;-67
2023/05/14 02:06:41;;;;;;;0.10;0.10;;;12.20;99.90;;;;;;5010166;28;20041;-67
2023/05/14 02:09:07;;;;;;;0.00;0.00;;;12.20;99.90;;;;;;5009244;28;20046;-67
2023/05/14 02:11:32;;;;;;;0.17;0.17;;;12.20;99.90;;;;;;5002971;28;20042;-67
2023/05/14 02:13:58;;;;;;;1.15;1.05;;;12.20;99.90;;;;;;5009606;28;20049;-67
2023/05/14 02:16:23;;;;;;;0.30;0.30;;;12.20;99.90;;;;;;5009996;28;20038;-67
2023/05/14 02:18:49;;;;;;;0.70;0.63;;;12.10;99.90;;;;;;5009935;28;20061;-67
2023/05/14 02:21:15;;;;;;;0.20;0.20;;;12.20;99.90;;;;;;4992517;28;20053;-67
2023/05/14 02:23:41;;;;;;;0.22;0.22;;;12.20;99.90;;;;;;4985230;28;20402;-67
2023/05/14 02:26:08;;;;;;;0.10;0.10;;;12.20;99.90;;;;;;5008224;28;20065;-67
2023/05/14 02:28:34;;;;;;;0.47;0.47;;;12.20;99.90;;;;;;5010320;28;20228;-67
2023/05/14 02:31:00;;;;;;;1.27;1.05;;;12.20;99.90;;;;;;5007942;28;20153;-67
2023/05/14 02:33:26;;;;;;;0.10;0.10;;;12.10;99.90;;;;;;5000809;28;20065;-67
2023/05/14 02:35:52;;;;;;;0.10;0.10;;;12.20;99.90;;;;;;5020205;28;20390;-67
2023/05/14 02:38:18;;;;;;;0.20;0.20;;;12.20;99.90;;;;;;4994199;28;20175;-67
2023/05/14 02:40:44;;;;;;;2.05;1.20;;;12.20;99.90;;;;;;5009309;28;20042;-67
2023/05/14 02:43:09;;;;;;;0.08;0.08;;;12.20;99.90;;;;;;5004503;28;20053;-67
2023/05/14 02:45:35;;;;;;;0.20;0.20;;;12.20;99.90;;;;;;5011946;28;20046;-67
2023/05/14 02:48:00;;;;;;;0.10;0.10;;;12.20;99.90;;;;;;5018883;28;20049;-67
2023/05/14 02:50:26;;;;;;;0.10;0.10;;;12.10;99.90;;;;;;5005008;28;20126;-67
2023/05/14 02:52:51;;;;;;;0.20;0.20;;;12.10;99.90;;;;;;5004364;28;20088;-67
2023/05/14 02:55:17;;;;;;;0.75;0.57;;;12.20;99.90;;;;;;5012246;28;20081;-67
2023/05/14 02:57:43;;;;;;;0.10;0.10;;;12.10;99.90;;;;;;5004641;28;20049;-67
2023/05/14 03:00:09;;;;;;;0.25;0.25;;;12.20;99.90;;;;;;5002092;28;20046;-67
2023/05/14 03:02:34;;;;;;;0.28;0.28;;;12.10;99.90;;;;;;5015496;28;20058;-67
2023/05/14 03:05:00;;;;;;;1.67;1.55;;;12.20;99.90;;;;;;5000143;28;20042;-67
2023/05/14 03:07:26;;;;;;;0.52;0.52;;;12.20;99.90;;;;;;5007448;28;20449;-67
2023/05/14 03:09:52;;;;;;;0.35;0.35;;;12.20;99.90;;;;;;5001659;28;20045;-67
2023/05/14 03:12:18;;;;;;;0.85;0.40;;;12.20;99.90;;;;;;5003277;28;20113;-67
2023/05/14 03:14:43;;;;;;;1.67;0.65;;;12.20;99.90;;;;;;5009716;28;20073;-67
2023/05/14 03:17:09;;;;;;;0.00;0.00;;;12.20;99.90;;;;;;5003392;28;20528;-67
2023/05/14 03:19:34;;;;;;;0.17;0.17;;;12.20;99.90;;;;;;4996429;28;20132;-67
2023/05/14 03:22:00;;;;;;;0.38;0.38;;;12.20;99.90;;;;;;5007825;28;20038;-67
2023/05/14 03:24:26;;;;;;;1.40;1.17;;;12.20;99.90;;;;;;5021236;28;20124;-67
2023/05/14 03:26:52;;;;;;;0.30;0.30;;;12.20;99.90;;;;;;4981393;28;20055;-67
2023/05/14 03:29:17;;;;;;;0.15;0.15;;;12.20;99.90;;;;;;4982472;28;20039;-67
2023/05/14 03:31:44;;;;;;;0.00;0.00;;;12.30;99.90;;;;;;4990800;28;20047;-67
2023/05/14 03:34:09;;;;;;;0.17;0.17;;;12.30;99.90;;;;;;4984864;28;20070;-67
2023/05/14 03:36:37;;;;;;;0.82;0.82;;;12.30;99.90;;;;;;4986131;28;20074;-67
2023/05/14 03:39:05;;;;;;;0.30;0.30;;;12.30;99.90;;;;;;4983001;28;20038;-67
2023/05/14 03:41:31;;;;;;;1.90;1.75;;;12.40;99.90;;;;;;4993594;28;20081;-67
2023/05/14 03:43:57;;;;;;;0.77;0.20;;;12.40;99.90;;;;;;4984370;28;20078;-67
2023/05/14 03:46:22;;;;;;;0.08;0.08;;;12.40;99.90;;;;;;4991469;28;20050;-67
2023/05/14 03:48:48;;;;;;;1.15;0.85;;;12.40;99.90;;;;;;4991868;28;20042;-67
2023/05/14 03:51:13;;;;;;;0.30;0.30;;;12.40;99.90;;;;;;4982968;28;20047;-67
2023/05/14 03:53:39;;;;;;;0.28;0.28;;;12.40;99.90;;;;;;4988227;28;20073;-67
2023/05/14 03:56:05;;;;;;;0.10;0.10;;;12.30;99.90;;;;;;4989268;28;20064;-67
2023/05/14 03:58:30;;;;;;;0.45;0.45;;;12.30;99.90;;;;;;4988887;28;20054;-67
2023/05/14 04:00:56;;;;;;;0.03;0.03;;;12.30;99.90;;;;;;4996376;28;20038;-67
2023/05/14 04:03:21;;;;;;;1.38;1.27;;;12.30;99.90;;;;;;4985272;28;20034;-67
2023/05/14 04:05:47;;;;;;;1.05;0.47;;;12.30;99.90;;;;;;4987810;28;20102;-67
2023/05/14 04:08:12;;;;;;;0.57;0.57;;;12.20;99.90;;;;;;4985660;28;20038;-67
2023/05/14 04:10:38;;;;;;;0.20;0.20;;;12.20;99.90;;;;;;4995710;28;20077;-68
2023/05/14 04:13:04;;;;;;;0.20;0.20;;;12.20;99.90;;;;;;4983444;28;20034;-67
2023/05/14 04:15:29;;;;;;;0.65;0.65;;;12.30;99.90;;;;;;4991998;28;20053;-67
2023/05/14 04:17:55;;;;;;;0.50;0.50;;;12.30;99.90;;;;;;4988050;28;20077;-67
2023/05/14 04:20:20;;;;;;;0.10;0.10;;;12.30;99.90;;;;;;4985382;28;20054;-67
2023/05/14 04:22:46;;;;;;;3.15;0.63;;;12.30;99.90;;;;;;4994876;28;20109;-67
2023/05/14 04:25:11;;;;;;;0.10;0.10;;;12.30;99.90;;;;;;4993178;28;20159;-68
2023/05/14 04:27:37;;;;;;;0.20;0.20;;;12.40;99.90;;;;;;5002743;28;20118;-67
2023/05/14 04:30:03;;;;;;;0.17;0.17;;;12.40;99.90;;;;;;5011287;28;20050;-67
2023/05/14 04:32:29;;;;;;;0.10;0.10;;;12.40;99.90;;;;;;4999670;28;20065;-68
2023/05/14 04:34:55;;;;;;;0.08;0.08;;;12.40;99.90;;;;;;5013397;28;20037;-67
2023/05/14 04:37:20;;;;;;;0.30;0.30;;;12.40;99.90;;;;;;5010760;28;20386;-67
2023/05/14 04:39:46;;;;;;;0.65;0.65;;;12.50;99.90;;;;;;5008744;28;20053;-67
2023/05/14 04:42:11;;;;;;;0.10;0.10;;;12.40;99.90;;;;;;4981058;28;20188;-67
2023/05/14 04:44:37;;;;;;;0.00;0.00;;;12.40;99.90;;;;;;5001719;28;20046;-67
2023/05/14 04:47:03;;;;;;;0.22;0.22;;;12.50;99.90;;;;;;4981592;28;20473;-67
2023/05/14 04:49:29;;;;;;;1.10;1.05;;;12.50;99.90;;;;;;5009055;28;20049;-67
2023/05/14 04:51:55;;;;;;;0.30;0.30;;;12.50;99.90;;;;;;5009875;28;20053;-67
2023/05/14 04:54:21;;;;;;;0.10;0.10;;;12.50;99.90;;;;;;5001228;28;20045;-67
2023/05/14 04:56:46;;;;;;;1.17;0.63;;;12.50;99.90;;;;;;5011355;28;20542;-67
2023/05/14 04:59:12;;;;;;;0.10;0.10;;;12.50;99.90;;;;;;5004206;28;20139;-68
2023/05/14 05:01:38;;;;;;;0.22;0.22;;;12.60;99.90;;;;;;4994809;28;20489;-67
2023/05/14 05:04:03;;;;;;;0.57;0.57;;;12.60;99.90;;;;;;5005142;28;20094;-68
2023/05/14 05:06:29;;;;;;;0.30;0.20;;;12.60;99.90;;;;;;4988056;28;20405;-67
2023/05/14 05:08:55;;;;;;;0.00;0.00;;;12.50;99.90;;;;;;5010542;28;20050;-67
2023/05/14 05:11:20;;;;;;;0.40;0.40;;;12.50;99.90;;;;;;5017469;28;20165;-67
2023/05/14 05:13:46;;;;;;;0.03;0.03;;;12.50;99.90;;;;;;4999144;28;20038;-67
2023/05/14 05:16:11;;;;;;;0.10;0.10;;;12.60;99.90;;;;;;4999174;28;20035;-67
2023/05/14 05:18:37;;;;;;;0.38;0.38;;;12.60;99.90;;;;;;5006072;28;20125;-67
2023/05/14 05:21:03;;;;;;;0.63;0.43;;;12.60;99.90;;;;;;5009275;28;20042;-68
2023/05/14 05:23:29;;;;;;;0.03;0.03;;;12.60;99.90;;;;;;5008621;28;20037;-67
2023/05/14 05:25:54;;;;;;;2.85;1.50;;;12.50;99.90;;;;;;4994517;28;20517;-67
2023/05/14 05:28:20;;;;;;;0.28;0.28;;;12.60;99.90;;;;;;5002418;28;20098;-68
2023/05/14 05:30:45;;;;;;;0.15;0.15;;;12.60;99.90;;;;;;5004544;28;20489;-67
2023/05/14 05:33:11;;;;;;;3.10;1.75;;;12.70;99.90;;;;;;4996052;28;20449;-67
2023/05/14 05:35:37;;;;;;;1.55;0.57;;;12.70;99.90;;;;;;5002490;28;20042;-67
2023/05/14 05:38:02;;;;;;;0.20;0.20;;;12.80;99.90;;;;;;5000421;28;20092;-67
2023/05/14 05:40:28;;;;;;;0.17;0.17;;;12.90;99.90;;;;;;5004810;28;20042;-68
2023/05/14 05:42:54;;;;;;;0.00;0.00;;;12.90;99.90;;;;;;5002330;28;20058;-67
2023/05/14 05:45:19;;;;;;;0.10;0.10;;;13.00;99.90;;;;;;4990663;28;20054;-67
2023/05/14 05:47:45;;;;;;;0.10;0.10;;;13.10;99.90;;;;;;5005027;28;20046;-67
2023/05/14 05:50:12;;;;;;;1.25;1.10;;;13.20;99.90;;;;;;5009926;28;20076;-68
2023/05/14 05:52:38;;;;;;;0.10;0.10;;;13.30;99.90;;;;;;4999715;28;20046;-67
2023/05/14 05:55:04;;;;;;;0.22;0.22;;;13.40;99.90;;;;;;5005675;28;20056;-67
2023/05/14 05:57:29;;;;;;;0.10;0.10;;;13.30;99.90;;;;;;5010891;28;20045;-67
2023/05/14 05:59:55;;;;;;;0.03;0.03;;;13.40;99.90;;;;;;5008844;28;20057;-67
2023/05/14 06:02:21;;;;;;;0.28;0.20;;;13.30;99.90;;;;;;4992624;28;20060;-68
2023/05/14 06:04:47;;;;;;;3.20;1.35;;;13.50;99.90;;;;;;5005584;28;20069;-67
2023/05/14 06:07:13;;;;;;;0.00;0.00;;;13.50;99.90;;;;;;5007934;28;20485;-67
2023/05/14 06:09:38;;;;;;;1.00;0.22;;;13.50;99.90;;;;;;5010115;28;20533;-67
2023/05/14 06:12:04;;;;;;;1.10;1.00;;;13.50;99.90;;;;;;4998559;28;20038;-67
2023/05/14 06:14:30;;;;;;;0.10;0.10;;;13.60;99.90;;;;;;4998931;28;20111;-67
2023/05/14 06:16:58;;;;;;;0.00;0.00;;;13.60;99.90;;;;;;5000724;28;20042;-68
2023/05/14 06:19:24;;;;;;;2.63;1.00;;;13.60;99.90;;;;;;4990414;28;20041;-67
2023/05/14 06:21:49;;;;;;;0.30;0.30;;;13.70;99.90;;;;;;4997999;28;20382;-67
2023/05/14 06:24:15;;;;;;;0.05;0.05;;;13.70;99.90;;;;;;5012667;28;20103;-67
2023/05/14 06:26:41;;;;;;;0.20;0.20;;;13.80;99.90;;;;;;5001040;28;20116;-67
2023/05/14 06:29:06;;;;;;;0.45;0.22;;;13.80;99.90;;;;;;5005728;28;20047;-68
2023/05/14 06:31:32;;;;;;;0.10;0.10;;;13.90;99.90;;;;;;5001041;28;20062;-67
2023/05/14 06:33:57;;;;;;;3.35;2.20;;;13.90;99.90;;;;;;5003820;28;20043;-67
2023/05/14 06:36:23;;;;;;;0.05;0.05;;;13.90;99.90;;;;;;4998087;28;20081;-67
2023/05/14 06:38:49;;;;;;;0.20;0.20;;;13.90;99.90;;;;;;5006172;28;20069;-67
2023/05/14 06:41:15;;;;;;;1.00;0.30;;;14.00;99.90;;;;;;5002431;28;20037;-68
2023/05/14 06:43:40;;;;;;;0.10;0.10;;;14.00;99.90;;;;;;5001256;28;20061;-67
2023/05/14 06:46:06;;;;;;;0.00;0.00;;;14.10;99.90;;;;;;5000839;28;20038;-67
2023/05/14 06:48:32;;;;;;;0.40;0.40;;;14.10;99.90;;;;;;4993821;28;20541;-67
2023/05/14 06:50:57;;;;;;;0.10;0.10;;;14.10;99.90;;;;;;5001618;28;20027;-68
2023/05/14 06:53:23;;;;;;;0.10;0.10;;;14.20;99.90;;;;;;4997724;28;20105;-68
2023/05/14 06:55:49;;;;;;;0.17;0.05;;;14.20;99.90;;;;;;5007223;28;20057;-68
2023/05/14 06:58:14;;;;;;;0.98;0.25;;;14.30;99.90;;;;;;4996934;28;20077;-68
2023/05/14 07:00:40;;;;;;;0.10;0.10;;;14.20;99.90;;;;;;5008219;28;20521;-68
2023/05/14 07:03:05;;;;;;;0.00;0.00;;;14.20;99.90;;;;;;4997592;28;20049;-68
2023/05/14 07:05:31;;;;;;;0.00;0.00;;;14.30;99.90;;;;;;4996125;28;20048;-67
2023/05/14 07:07:57;;;;;;;0.10;0.10;;;14.30;99.90;;;;;;5012872;28;20112;-68
2023/05/14 07:10:22;;;;;;;0.13;0.13;;;14.40;99.90;;;;;;5007799;28;20064;-67
2023/05/14 07:12:48;;;;;;;0.05;0.05;;;14.40;99.90;;;;;;5004042;28;20037;-67
2023/05/14 07:15:14;;;;;;;0.00;0.00;;;14.50;99.90;;;;;;5008204;28;20053;-67
2023/05/14 07:17:40;;;;;;;0.65;0.65;;;14.60;99.90;;;;;;5017306;28;20057;-67
2023/05/14 07:20:06;;;;;;;0.22;0.22;;;14.60;99.90;;;;;;5018785;28;20042;-67
2023/05/14 07:22:32;;;;;;;0.38;0.15;;;14.60;99.90;;;;;;5001291;28;20048;-67
2023/05/14 07:24:57;;;;;;;2.83;0.30;;;14.70;99.90;;;;;;5010279;28;20491;-67
2023/05/14 07:27:23;;;;;;;0.10;0.10;;;14.70;99.90;;;;;;5011433;28;20117;-68
2023/05/14 07:29:49;;;;;;;0.40;0.40;;;14.70;99.90;;;;;;5005161;28;20038;-67
2023/05/14 07:32:15;;;;;;;0.10;0.10;;;14.70;99.90;;;;;;5011157;28;20112;-67
2023/05/14 07:34:40;;;;;;;0.00;0.00;;;14.80;99.90;;;;;;4988643;28;20083;-67
2023/05/14 07:37:06;;;;;;;0.20;0.20;;;14.90;99.90;;;;;;5001128;28;20477;-67
2023/05/14 07:39:31;;;;;;;0.00;0.00;;;14.90;99.90;;;;;;5007329;28;20042;-67
2023/05/14 07:41:57;;;;;;;0.13;0.13;;;15.10;99.90;;;;;;5002138;28;20042;-67
2023/05/14 07:44:23;;;;;;;0.00;0.00;;;15.00;99.90;;;;;;5009254;28;20044;-67
2023/05/14 07:46:48;;;;;;;0.20;0.20;;;15.10;99.90;;;;;;5003848;28;20050;-67
2023/05/14 07:49:14;;;;;;;0.10;0.10;;;15.20;99.90;;;;;;5003418;28;20049;-67
2023/05/14 07:51:39;;;;;;;0.10;0.10;;;15.20;99.90;;;;;;4992354;28;20061;-67
2023/05/14 07:54:05;;;;;;;1.17;1.02;;;15.30;99.90;;;;;;4993037;28;20150;-67
2023/05/14 07:56:31;;;;;;;0.00;0.00;;;15.40;99.90;;;;;;5012066;28;20092;-67
2023/05/14 07:58:56;;;;;;;0.00;0.00;;;15.40;99.90;;;;;;5007573;28;20069;-67
2023/05/14 08:01:22;;;;;;;1.30;1.20;;;15.40;99.90;;;;;;4996842;28;20042;-66
2023/05/14 08:03:47;;;;;;;0.10;0.10;;;15.30;99.90;;;;;;5000375;28;20042;-65
2023/05/14 08:06:13;;;;;;;0.10;0.10;;;15.30;99.90;;;;;;5006000;28;20478;-65
2023/05/14 08:08:39;;;;;;;10.95;1.05;;;15.40;99.90;;;;;;5007883;28;20084;-66
2023/05/14 08:11:05;;;;;;;0.00;0.00;;;15.40;99.90;;;;;;4986707;28;20050;-65
2023/05/14 08:13:31;;;;;;;0.30;0.30;;;15.30;99.90;;;;;;5006451;28;20042;-65
2023/05/14 08:15:56;;;;;;;0.10;0.10;;;15.30;99.90;;;;;;5003332;28;20042;-65
2023/05/14 08:18:22;;;;;;;0.25;0.25;;;15.30;99.90;;;;;;4989210;28;20120;-66
2023/05/14 08:20:47;;;;;;;0.28;0.28;;;15.30;99.90;;;;;;5009410;28;20073;-66
2023/05/14 08:23:13;;;;;;;0.13;0.13;;;15.30;99.90;;;;;;5000415;28;20425;-66
2023/05/14 08:25:38;;;;;;;0.22;0.22;;;15.30;99.90;;;;;;5005864;28;20066;-66
2023/05/14 08:28:04;;;;;;;0.57;0.57;;;15.50;99.90;;;;;;5016781;28;20045;-66
2023/05/14 08:30:30;;;;;;;0.70;0.70;;;15.60;99.90;;;;;;4999630;28;20404;-66
2023/05/14 08:32:56;;;;;;;0.00;0.00;;;15.70;99.90;;;;;;5006286;28;20056;-66
2023/05/14 08:35:22;;;;;;;0.03;0.03;;;15.80;99.90;;;;;;5001028;28;20038;-66
2023/05/14 08:37:49;;;;;;;0.17;0.17;;;15.90;99.90;;;;;;5005778;28;20042;-66
2023/05/14 08:40:16;;;;;;;19.33;1.30;;;16.00;99.90;;;;;;5002573;28;20077;-66
2023/05/14 08:42:43;;;;;;;0.00;0.00;;;15.90;99.90;;;;;;5008278;28;20371;-65
2023/05/14 08:45:20;;;;;;;0.00;0.00;;;16.00;99.90;;;;;;5007881;28;20516;-65
2023/05/14 08:47:49;;;;;;;0.20;0.20;;;16.10;99.90;;;;;;5008990;28;20437;-65
2023/05/14 08:50:15;;;;;;;0.28;0.28;;;16.10;99.90;;;;;;5003386;28;20046;-65
2023/05/14 08:52:41;;;;;;;0.00;0.00;;;16.20;99.90;;;;;;4998621;28;20042;-65
2023/05/14 08:55:08;;;;;;;8.27;0.63;;;16.20;99.90;;;;;;5002752;28;20393;-66
2023/05/14 08:57:34;;;;;;;1.35;0.95;;;16.30;99.90;;;;;;4992742;28;20049;-65
2023/05/14 09:00:06;;;;;;;0.03;0.03;;;16.40;99.90;;;;;;4999875;28;20398;-65
2023/05/14 09:02:32;;;;;;;0.10;0.10;;;16.60;99.90;;;;;;5008783;28;20390;-65
2023/05/14 09:05:00;;;;;;;0.13;0.13;;;16.60;99.90;;;;;;5005549;28;20045;-65
2023/05/14 09:07:26;;;;;;;0.20;0.20;;;16.70;99.90;;;;;;5000627;28;20099;-65
2023/05/14 09:09:53;;;;;;;0.50;0.50;;;16.60;99.90;;;;;;5011304;28;20570;-65
2023/05/14 09:12:19;;;;;;;0.00;0.00;;;16.80;99.90;;;;;;5010113;28;20386;-65
2023/05/14 09:14:46;;;;;;;2.92;0.47;;;16.70;99.90;;;;;;5004601;28;20085;-65
2023/05/14 09:17:12;;;;;;;0.10;0.10;;;16.80;99.90;;;;;;4996910;28;20413;-65
2023/05/14 09:19:42;;;;;;;1.95;1.00;;;16.80;99.90;;;;;;5008191;28;20065;-65
2023/05/14 09:22:13;;;;;;;0.55;0.55;;;17.00;99.90;;;;;;5009738;28;20394;-65
2023/05/14 09:24:39;;;;;;;0.30;0.30;;;17.00;99.90;;;;;;5007664;28;20569;-65
2023/05/14 09:27:05;;;;;;;0.22;0.22;;;17.10;99.90;;;;;;5010903;28;20397;-65
2023/05/14 09:29:32;;;;;;;0.20;0.20;;;17.20;99.90;;;;;;5010443;28;20056;-65
2023/05/14 09:32:04;;;;;;;0.10;0.10;;;17.40;99.90;;;;;;5005150;28;20093;-64
2023/05/14 09:34:31;;;;;;;1.00;0.80;;;17.60;99.90;;;;;;4999009;28;20042;-65
2023/05/14 09:36:58;;;;;;;0.00;0.00;;;17.90;99.90;;;;;;5002789;28;20080;-65
2023/05/14 09:39:25;;;;;;;1.65;1.02;;;18.20;99.90;;;;;;5009124;28;20041;-64
2023/05/14 09:41:51;;;;;;;0.00;0.00;;;18.40;99.90;;;;;;5001704;28;20041;-64
2023/05/14 09:44:17;;;;;;;0.00;0.00;;;18.60;99.90;;;;;;5004248;28;20034;-64
2023/05/14 09:46:47;;;;;;;0.63;0.40;;;18.70;99.90;;;;;;5009976;28;20050;-64
2023/05/14 09:49:13;;;;;;;0.40;0.40;;;18.90;99.90;;;;;;4990395;28;20052;-65
2023/05/14 09:51:39;;;;;;;5.63;0.90;;;19.00;99.90;;;;;;4999436;28;20493;-64
2023/05/14 09:54:05;;;;;;;0.20;0.20;;;19.00;99.90;;;;;;5009197;28;20061;-65
2023/05/14 09:56:32;;;;;;;0.60;0.60;;;19.10;99.90;;;;;;5002147;28;20553;-64
2023/05/14 09:58:58;;;;;;;0.10;0.10;;;19.10;99.90;;;;;;5006134;28;20088;-65
2023/05/14 10:01:24;;;;;;;2.45;1.65;;;19.00;99.90;;;;;;4992770;28;20053;-64
2023/05/14 10:03:51;;;;;;;2.33;1.45;;;19.00;99.90;;;;;;5003161;28;20460;-65
2023/05/14 10:06:20;;;;;;;0.47;0.47;;;18.80;99.90;;;;;;5010358;28;20042;-64
2023/05/14 10:08:48;;;;;;;0.10;0.10;;;19.10;99.90;;;;;;5004044;28;20069;-65
2023/05/14 10:11:21;;;;;;;0.40;0.40;;;19.30;99.90;;;;;;5000557;28;20457;-64
2023/05/14 10:13:52;;;;;;;;;;;19.50;99.90;;;;;;5012507;28;20054;-64
2023/05/14 10:16:23;;;;;;;0.10;0.10;;;19.80;99.90;;;;;;5006280;28;19921;-64
2023/05/14 10:18:55;;;;;;;0.10;0.10;;;20.00;99.90;;;;;;5000019;28;20750;-64
2023/05/14 10:21:22;;;;;;;0.93;0.47;;;20.00;99.90;;;;;;5005288;28;20046;-64
2023/05/14 10:23:49;;;;;;;0.35;0.35;;;19.90;99.90;;;;;;5010049;28;20033;-64
2023/05/14 10:26:15;;;;;;;0.00;0.00;;;19.80;99.90;;;;;;5005543;28;20081;-64
2023/05/14 10:28:41;;;;;;;0.40;0.40;;;19.90;99.90;;;;;;5000969;28;20066;-64
2023/05/14 10:31:08;;;;;;;0.00;0.00;;;19.90;99.90;;;;;;5002318;28;20034;-64
2023/05/14 10:33:48;;;;;;;0.30;0.30;;;20.10;99.90;;;;;;5007314;28;20041;-65
2023/05/14 10:36:13;;;;;;;1.60;1.50;;;20.20;99.90;;;;;;4998543;28;20587;-65
2023/05/14 10:38:39;;;;;;;0.00;0.00;;;20.30;99.90;;;;;;5006331;28;20467;-65
2023/05/14 10:41:09;;;;;;;17.05;0.65;;;20.20;99.90;;;;;;5000821;28;20049;-65
2023/05/14 10:43:39;;;;;;;0.00;0.00;;;20.20;99.90;;;;;;5002608;28;20073;-65
2023/05/14 10:46:07;;;;;;;15.90;0.82;;;20.30;99.90;;;;;;4998358;28;20045;-65
2023/05/14 10:48:35;;;;;;;0.00;0.00;;;20.30;99.90;;;;;;5007196;28;20113;-65
2023/05/14 10:51:03;;;;;;;0.17;0.17;;;20.30;99.90;;;;;;5012747;28;20498;-65
2023/05/14 10:53:40;;;;;;;0.00;0.00;;;20.30;99.90;;;;;;5014300;28;20041;-65
2023/05/14 10:56:07;;;;;;;0.17;0.17;;;20.30;99.90;;;;;;5007059;28;20046;-65
2023/05/14 10:58:37;;;;;;;1.08;0.80;;;20.30;99.90;;;;;;4999607;28;20053;-65
2023/05/14 11:01:06;;;;;;;1.08;0.57;;;20.40;99.90;;;;;;4993331;28;20046;-65
2023/05/14 11:03:44;;;;;;;0.08;0.08;;;20.60;99.90;;;;;;5010613;28;20084;-65
2023/05/14 11:06:11;;;;;;;0.43;0.43;;;20.80;99.90;;;;;;5002851;28;20050;-66
2023/05/14 11:08:38;;;;;;;0.35;0.35;;;20.90;99.90;;;;;;5002634;28;20030;-65
2023/05/14 11:11:04;;;;;;;0.13;0.13;;;21.00;99.90;;;;;;5015694;28;20389;-65
2023/05/14 11:13:31;;;;;;;0.63;0.63;;;21.20;99.90;;;;;;5003572;28;20117;-64
2023/05/14 11:15:57;;;;;;;0.00;0.00;;;21.20;99.90;;;;;;5009030;28;20443;-65
2023/05/14 11:18:32;;;;;;;0.20;0.20;;;21.10;99.90;;;;;;5012079;28;20049;-65
2023/05/14 11:21:01;;;;;;;6.82;0.85;;;21.20;99.90;;;;;;5000925;28;20581;-64
2023/05/14 11:23:27;;;;;;;0.22;0.22;;;21.10;99.90;;;;;;5008803;28;20042;-65
2023/05/14 11:25:54;;;;;;;1.35;1.27;;;21.20;99.90;;;;;;5010416;28;20502;-65
2023/05/14 11:28:25;;;;;;;0.20;0.20;;;21.40;99.90;;;;;;5008043;28;20054;-65
2023/05/14 11:30:52;;;;;;;0.20;0.20;;;21.30;99.90;;;;;;5002584;28;20562;-65
2023/05/14 11:33:18;;;;;;;0.17;0.17;;;21.50;99.90;;;;;;5006223;28;20486;-65
2023/05/14 11:35:45;;;;;;;0.25;0.25;;;21.70;99.90;;;;;;4999101;28;20524;-65
2023/05/14 11:38:17;;;;;;;0.32;0.32;;;21.60;99.90;;;;;;5011159;28;20042;-65
2023/05/14 11:40:52;;;;;;;0.08;0.08;;;21.70;99.90;;;;;;4982049;28;20506;-65
2023/05/14 11:43:17;;;;;;;0.47;0.47;;;21.90;99.90;;;;;;4991552;28;20049;-65
2023/05/14 11:45:50;;;;;;;0.63;0.57;;;21.90;99.90;;;;;;5006197;28;20109;-65
2023/05/14 11:48:15;;;;;;;0.17;0.17;;;21.80;99.90;;;;;;5010632;28;20049;-65
2023/05/14 11:50:48;;;;;;;6.82;0.70;;;21.80;99.90;;;;;;5016496;28;20432;-65
2023/05/14 11:53:24;;;;;;;0.28;0.28;;;21.80;99.90;;;;;;5014915;28;20042;-66
2023/05/14 11:55:53;;;;;;;0.08;0.08;;;22.20;99.90;;;;;;4984290;28;20438;-66
2023/05/14 11:58:19;;;;;;;0.20;0.20;;;22.30;99.90;;;;;;5002774;28;20539;-65
2023/05/14 12:00:45;;;;;;;0.20;0.10;;;22.40;99.90;;;;;;5002561;28;20042;-65
2023/05/14 12:03:11;;;;;;;0.10;0.10;;;22.70;99.90;;;;;;5006837;28;20045;-65
2023/05/14 12:05:38;;;;;;;0.03;0.03;;;22.80;99.90;;;;;;5014189;28;20623;-65
2023/05/14 12:08:22;;;;;;;1.88;1.77;;;22.90;99.90;;;;;;5020536;28;20029;-65
2023/05/14 12:10:47;;;;;;;1.13;1.02;;;22.50;99.90;;;;;;4999207;28;20045;-66
2023/05/14 12:13:17;;;;;;;0.03;0.03;;;22.40;99.90;;;;;;4998211;28;20042;-66
2023/05/14 12:16:01;;;;;;;1.38;0.68;;;22.60;99.90;;;;;;5009118;28;20041;-66
2023/05/14 12:18:29;;;;;;;0.30;0.30;;;22.90;99.90;;;;;;5012474;28;20603;-66
2023/05/14 12:21:00;;;;;;;0.20;0.20;;;22.80;99.90;;;;;;5012702;28;20048;-66
2023/05/14 12:23:28;;;;;;;0.10;0.10;;;22.90;99.90;;;;;;4998886;28;20069;-66
2023/05/14 12:25:53;;;;;;;0.43;0.22;;;22.70;99.90;;;;;;5005750;28;20053;-66
2023/05/14 12:28:19;;;;;;;2.45;0.98;;;22.90;99.90;;;;;;5009494;28;20048;-66
2023/05/14 12:30:46;;;;;;;0.73;0.73;;;22.80;99.90;;;;;;4988769;28;20060;-66
2023/05/14 12:33:12;;;;;;;0.30;0.30;;;22.70;99.90;;;;;;5005057;28;20038;-66
2023/05/14 12:35:38;;;;;;;0.90;0.75;;;22.50;99.90;;;;;;5010718;28;20647;-66
2023/05/14 12:38:03;;;;;;;1.20;1.10;;;22.70;99.90;;;;;;5001590;28;20052;-66
2023/05/14 12:40:29;;;;;;;0.10;0.10;;;22.80;99.90;;;;;;5006669;28;20466;-66
2023/05/14 12:42:55;;;;;;;0.00;0.00;;;23.00;99.90;;;;;;5011378;28;20886;-66
2023/05/14 12:45:20;;;;;;;1.50;0.63;;;23.00;99.90;;;;;;5003100;28;20056;-66